createdAt,value
2022-10-27T00:00:46.161Z,7.03
2022-10-27T00:03:16.009Z,7.10
2022-10-27T00:05:44.825Z,7.82
2022-10-27T00:08:22.701Z,7.15
2022-10-27T00:11:02.108Z,7.55
2022-10-27T00:13:29.785Z,7.20
2022-10-27T00:15:58.060Z,7.60
2022-10-27T00:18:24.742Z,7.55
2022-10-27T00:21:04.417Z,8.30
2022-10-27T00:23:31.651Z,7.65
2022-10-27T00:25:59.768Z,7.47
2022-10-27T00:28:27.408Z,7.05
2022-10-27T00:31:07.392Z,7.25
2022-10-27T00:33:34.919Z,6.93
2022-10-27T00:36:17.312Z,8.18
2022-10-27T00:38:44.471Z,6.75
2022-10-27T00:41:38.997Z,7.20
2022-10-27T00:44:42.960Z,7.72
2022-10-27T00:47:09.522Z,7.50
2022-10-27T00:49:42.213Z,6.90
2022-10-27T00:52:42.167Z,7.32
2022-10-27T00:55:21.248Z,7.38
2022-10-27T00:57:52.867Z,7.15
2022-10-27T01:00:20.025Z,7.28
2022-10-27T01:02:47.505Z,7.38
2022-10-27T01:05:20.412Z,7.65
2022-10-27T01:07:49.276Z,6.43
2022-10-27T01:10:17.198Z,7.57
2022-10-27T01:12:44.973Z,6.97
2022-10-27T01:15:12.070Z,7.85
2022-10-27T01:18:20.691Z,6.95
2022-10-27T01:21:24.967Z,7.03
2022-10-27T01:23:57.379Z,8.00
2022-10-27T01:26:32.960Z,8.02
2022-10-27T01:29:21.274Z,7.72
2022-10-27T01:31:51.370Z,7.63
2022-10-27T01:34:57.749Z,8.68
2022-10-27T01:37:39.965Z,8.88
2022-10-27T01:40:13.671Z,7.65
2022-10-27T01:42:51.066Z,7.40
2022-10-27T01:45:24.169Z,7.90
2022-10-27T01:47:52.951Z,8.18
2022-10-27T01:50:32.188Z,8.27
2022-10-27T01:53:09.472Z,7.40
2022-10-27T01:56:04.014Z,8.27
2022-10-27T01:58:44.107Z,8.20
2022-10-27T02:01:52.594Z,7.25
2022-10-27T02:04:50.320Z,7.22
2022-10-27T02:07:16.938Z,7.43
2022-10-27T02:12:36.788Z,7.22
2022-10-27T02:15:08.998Z,6.75
2022-10-27T02:17:40.091Z,7.28
2022-10-27T02:20:14.255Z,7.75
2022-10-27T02:22:45.383Z,7.25
2022-10-27T02:25:14.454Z,7.95
2022-10-27T02:27:47.501Z,8.52
2022-10-27T02:30:14.745Z,8.73
2022-10-27T02:32:41.999Z,7.72
2022-10-27T02:35:11.610Z,7.60
2022-10-27T02:37:43.249Z,6.85
2022-10-27T02:40:10.533Z,6.97
2022-10-27T02:42:37.269Z,7.55
2022-10-27T02:45:04.735Z,6.60
2022-10-27T02:47:31.820Z,7.47
2022-10-27T02:49:58.449Z,6.75
2022-10-27T02:52:25.231Z,7.07
2022-10-27T02:54:51.806Z,6.63
2022-10-27T02:57:18.989Z,6.63
2022-10-27T02:59:49.454Z,6.65
2022-10-27T03:02:19.986Z,6.22
2022-10-27T03:04:46.802Z,6.95
2022-10-27T03:09:39.887Z,7.32
2022-10-27T03:12:06.892Z,8.20
2022-10-27T03:14:33.507Z,7.40
2022-10-27T03:17:00.306Z,6.47
2022-10-27T03:19:26.927Z,6.63
2022-10-27T03:21:53.550Z,6.88
2022-10-27T03:24:20.449Z,6.40
2022-10-27T03:26:47.246Z,7.95
2022-10-27T03:29:13.872Z,7.20
2022-10-27T03:31:40.469Z,7.00
2022-10-27T03:34:07.195Z,6.93
2022-10-27T03:36:33.981Z,8.05
2022-10-27T03:39:00.860Z,8.60
2022-10-27T03:41:27.592Z,8.70
2022-10-27T03:43:54.271Z,8.27
2022-10-27T03:46:20.847Z,7.82
2022-10-27T03:48:47.479Z,9.07
2022-10-27T03:53:40.782Z,7.32
2022-10-27T03:56:07.666Z,8.32
2022-10-27T03:58:34.314Z,8.05
2022-10-27T04:01:05.355Z,8.00
2022-10-27T04:03:32.949Z,9.10
2022-10-27T04:05:59.818Z,8.13
2022-10-27T04:08:26.921Z,8.13
2022-10-27T04:10:53.745Z,7.80
2022-10-27T04:13:20.563Z,8.60
2022-10-27T04:15:47.219Z,8.07
2022-10-27T04:18:13.927Z,7.82
2022-10-27T04:20:40.868Z,8.32
2022-10-27T04:23:07.504Z,7.28
2022-10-27T04:25:34.201Z,8.00
2022-10-27T04:28:05.316Z,7.10
2022-10-27T04:30:32.629Z,8.18
2022-10-27T04:32:59.735Z,7.78
2022-10-27T04:35:26.616Z,7.93
2022-10-27T04:37:56.160Z,8.38
2022-10-27T04:40:23.605Z,7.93
2022-10-27T04:42:50.293Z,7.38
2022-10-27T04:45:17.173Z,8.93
2022-10-27T04:47:45.169Z,8.70
2022-10-27T04:50:13.869Z,8.63
2022-10-27T04:52:44.313Z,8.45
2022-10-27T04:55:13.919Z,7.57
2022-10-27T04:57:40.782Z,7.80
2022-10-27T05:00:08.171Z,7.82
2022-10-27T05:02:37.901Z,7.60
2022-10-27T05:05:06.303Z,8.25
2022-10-27T05:07:33.098Z,8.07
2022-10-27T05:10:00.001Z,8.38
2022-10-27T05:12:27.239Z,7.78
2022-10-27T05:14:53.897Z,7.80
2022-10-27T05:19:48.668Z,8.27
2022-10-27T05:22:15.577Z,8.10
2022-10-27T05:24:42.264Z,7.53
2022-10-27T05:27:08.890Z,7.43
2022-10-27T05:29:35.567Z,7.55
2022-10-27T05:32:02.312Z,7.10
2022-10-27T05:34:31.508Z,7.03
2022-10-27T05:36:58.221Z,8.50
2022-10-27T05:39:24.978Z,7.25
2022-10-27T05:41:51.797Z,7.55
2022-10-27T05:44:18.521Z,8.15
2022-10-27T05:46:46.072Z,7.40
2022-10-27T05:49:12.876Z,7.18
2022-10-27T05:51:39.640Z,7.85
2022-10-27T05:54:06.503Z,8.35
2022-10-27T05:56:33.170Z,8.80
2022-10-27T05:58:59.909Z,7.28
2022-10-27T06:01:26.724Z,7.00
2022-10-27T06:03:53.557Z,7.30
2022-10-27T06:06:20.345Z,8.70
2022-10-27T06:08:47.133Z,6.93
2022-10-27T06:11:13.905Z,8.40
2022-10-27T06:13:40.616Z,9.18
2022-10-27T06:16:10.726Z,8.73
2022-10-27T06:18:39.954Z,8.40
2022-10-27T06:21:15.629Z,7.97
2022-10-27T06:23:43.172Z,8.13
2022-10-27T06:26:11.248Z,9.30
2022-10-27T06:28:38.021Z,8.27
2022-10-27T06:31:30.232Z,8.32
2022-10-27T06:33:57.085Z,8.45
2022-10-27T06:36:26.413Z,8.73
2022-10-27T06:38:53.189Z,8.38
2022-10-27T06:41:20.017Z,8.75
2022-10-27T06:43:46.853Z,8.40
2022-10-27T06:46:13.689Z,8.52
2022-10-27T06:48:41.866Z,7.93
2022-10-27T06:51:08.968Z,9.13
2022-10-27T06:53:35.723Z,7.35
2022-10-27T06:56:06.831Z,9.13
2022-10-27T06:58:39.309Z,8.45
2022-10-27T07:01:07.052Z,7.72
2022-10-27T07:03:35.395Z,8.20
2022-10-27T07:06:02.314Z,9.07
2022-10-27T07:08:30.832Z,8.27
2022-10-27T07:10:58.877Z,7.85
2022-10-27T07:13:25.715Z,7.97
2022-10-27T07:15:52.451Z,7.55
2022-10-27T07:18:19.263Z,6.70
2022-10-27T07:20:48.536Z,7.75
2022-10-27T07:23:15.513Z,7.57
2022-10-27T07:25:42.505Z,7.90
2022-10-27T07:28:09.373Z,8.50
2022-10-27T07:30:39.240Z,7.28
2022-10-27T07:33:06.188Z,6.82
2022-10-27T07:35:33.815Z,6.88
2022-10-27T07:38:00.602Z,7.80
2022-10-27T07:40:30.354Z,6.90
2022-10-27T07:43:05.387Z,7.75
2022-10-27T07:45:41.270Z,8.38
2022-10-27T07:48:12.974Z,7.13
2022-10-27T07:50:40.817Z,7.40
2022-10-27T07:53:07.930Z,7.38
2022-10-27T07:55:37.102Z,7.18
2022-10-27T07:58:14.375Z,7.03
2022-10-27T08:00:46.909Z,7.25
2022-10-27T08:03:26.410Z,7.97
2022-10-27T08:05:53.555Z,7.13
2022-10-27T08:08:21.127Z,7.57
2022-10-27T08:10:51.235Z,7.25
2022-10-27T08:13:18.409Z,6.68
2022-10-27T08:15:45.382Z,6.60
2022-10-27T08:18:13.331Z,6.35
2022-10-27T08:20:43.087Z,5.82
2022-10-27T08:23:18.634Z,7.07
2022-10-27T08:25:45.517Z,7.13
2022-10-27T08:28:14.035Z,6.78
2022-10-27T08:30:48.345Z,6.97
2022-10-27T08:33:19.211Z,6.95
2022-10-27T08:35:47.371Z,7.22
2022-10-27T08:38:16.815Z,6.60
2022-10-27T08:41:08.477Z,6.47
2022-10-27T08:43:38.219Z,6.25
2022-10-27T08:46:46.356Z,7.32
2022-10-27T08:49:30.718Z,6.70
2022-10-27T08:52:04.678Z,6.88
2022-10-27T08:54:33.698Z,6.43
2022-10-27T08:57:03.655Z,6.55
2022-10-27T08:59:32.317Z,6.30
2022-10-27T09:02:15.804Z,6.32
2022-10-27T09:05:11.516Z,6.07
2022-10-27T09:07:49.839Z,6.20
2022-10-27T09:10:44.470Z,5.90
2022-10-27T09:13:42.895Z,6.50
2022-10-27T09:16:18.633Z,6.40
2022-10-27T09:18:56.468Z,5.88
2022-10-27T09:21:25.699Z,6.45
2022-10-27T09:23:54.713Z,5.80
2022-10-27T09:26:29.028Z,5.55
2022-10-27T09:28:56.106Z,6.57
2022-10-27T09:31:40.605Z,6.18
2022-10-27T09:34:18.721Z,5.40
2022-10-27T09:36:45.742Z,5.70
2022-10-27T09:39:14.232Z,5.97
2022-10-27T09:41:41.588Z,5.47
2022-10-27T09:44:21.549Z,5.78
2022-10-27T09:46:54.419Z,5.40
2022-10-27T09:49:32.674Z,5.25
2022-10-27T09:54:29.849Z,5.25
2022-10-27T09:57:04.650Z,6.18
2022-10-27T09:59:36.872Z,5.75
2022-10-27T10:02:06.595Z,5.18
2022-10-27T10:04:36.900Z,5.07
2022-10-27T10:07:06.446Z,4.47
2022-10-27T10:09:39.607Z,4.45
2022-10-27T10:12:23.047Z,3.95
2022-10-27T10:17:22.875Z,4.68
2022-10-27T10:19:50.570Z,5.00
2022-10-27T10:22:24.956Z,4.25
2022-10-27T10:24:52.764Z,4.10
2022-10-27T10:27:29.182Z,4.18
2022-10-27T10:29:58.977Z,4.45
2022-10-27T10:32:37.766Z,3.83
2022-10-27T10:35:42.987Z,3.85
2022-10-27T10:38:24.796Z,4.03
2022-10-27T10:41:01.953Z,3.95
2022-10-27T10:43:29.445Z,3.70
2022-10-27T10:45:57.717Z,4.05
2022-10-27T10:48:29.938Z,3.90
2022-10-27T10:50:58.273Z,4.10
2022-10-27T10:53:39.093Z,3.58
2022-10-27T10:56:34.164Z,3.58
2022-10-27T10:59:09.997Z,3.78
2022-10-27T11:01:43.118Z,3.38
2022-10-27T11:04:18.244Z,3.53
2022-10-27T11:06:57.383Z,3.67
2022-10-27T11:09:29.294Z,3.30
2022-10-27T11:11:57.340Z,3.22
2022-10-27T11:14:28.505Z,3.40
2022-10-27T11:17:04.144Z,3.38
2022-10-27T11:19:39.148Z,3.08
2022-10-27T11:22:15.469Z,2.35
2022-10-27T11:24:50.184Z,2.00
2022-10-27T11:27:36.183Z,1.70
2022-10-27T11:30:20.784Z,1.80
2022-10-27T11:33:27.543Z,1.73
2022-10-27T11:36:13.280Z,1.98
2022-10-27T11:38:57.015Z,1.90
2022-10-27T11:41:46.539Z,2.10
2022-10-27T11:44:19.634Z,1.98
2022-10-27T11:47:38.633Z,2.03
2022-10-27T11:50:18.381Z,2.05
2022-10-27T11:52:57.497Z,2.30
2022-10-27T11:55:34.405Z,2.70
2022-10-27T11:58:24.789Z,2.53
2022-10-27T12:01:00.580Z,2.47
2022-10-27T12:03:59.948Z,2.58
2022-10-27T12:06:38.901Z,2.70
2022-10-27T12:09:36.478Z,2.70
2022-10-27T12:12:10.923Z,2.38
2022-10-27T12:15:12.132Z,2.65
2022-10-27T12:17:46.466Z,2.90
2022-10-27T12:20:19.121Z,2.97
2022-10-27T12:23:05.890Z,2.80
2022-10-27T12:25:46.994Z,2.92
2022-10-27T12:28:16.001Z,2.70
2022-10-27T12:30:48.052Z,2.60
2022-10-27T12:33:33.156Z,2.42
2022-10-27T12:36:27.008Z,2.55
2022-10-27T12:39:07.371Z,2.50
2022-10-27T12:42:00.630Z,2.40
2022-10-27T12:44:41.070Z,2.40
2022-10-27T12:47:33.200Z,2.30
2022-10-27T12:50:37.616Z,2.35
2022-10-27T12:53:12.023Z,2.40
2022-10-27T12:56:04.598Z,2.53
2022-10-27T12:58:31.566Z,2.03
2022-10-27T13:01:06.779Z,2.08
2022-10-27T13:03:55.448Z,1.90
2022-10-27T13:06:43.376Z,2.00
2022-10-27T13:09:32.152Z,2.10
2022-10-27T13:12:04.984Z,2.38
2022-10-27T13:14:56.905Z,2.17
2022-10-27T13:17:35.291Z,2.28
2022-10-27T13:20:15.824Z,2.28
2022-10-27T13:23:04.262Z,1.98
2022-10-27T13:25:38.119Z,2.90
2022-10-27T13:28:21.651Z,2.45
2022-10-27T13:30:57.314Z,2.20
2022-10-27T13:33:38.592Z,2.22
2022-10-27T13:36:20.177Z,2.70
2022-10-27T13:38:47.959Z,2.53
2022-10-27T13:41:52.618Z,2.28
2022-10-27T13:44:31.662Z,2.40
2022-10-27T13:47:04.711Z,2.30
2022-10-27T13:49:40.676Z,2.10
2022-10-27T13:52:16.734Z,2.20
2022-10-27T13:55:09.031Z,2.30
2022-10-27T13:58:13.399Z,2.10
2022-10-27T14:00:54.926Z,2.60
2022-10-27T14:06:08.880Z,2.40
2022-10-27T14:08:49.310Z,2.10
2022-10-27T14:11:19.785Z,1.98
2022-10-27T14:14:08.520Z,2.25
2022-10-27T14:16:43.272Z,2.38
2022-10-27T14:19:20.577Z,2.10
2022-10-27T14:21:51.522Z,2.03
2022-10-27T14:24:26.468Z,2.00
2022-10-27T14:27:06.698Z,2.00
2022-10-27T14:29:38.685Z,1.85
2022-10-27T14:32:27.575Z,2.20
2022-10-27T14:34:54.300Z,2.10
2022-10-27T14:37:36.293Z,2.20
2022-10-27T14:40:04.529Z,2.17
2022-10-27T14:42:33.398Z,2.40
2022-10-27T14:45:05.846Z,1.95
2022-10-27T14:47:34.608Z,2.85
2022-10-27T14:50:12.208Z,2.38
2022-10-27T14:52:45.895Z,2.40
2022-10-27T14:55:27.265Z,2.10
2022-10-27T14:57:54.399Z,2.28
2022-10-27T15:00:32.779Z,2.58
2022-10-27T15:03:02.379Z,2.42
2022-10-27T15:05:36.271Z,2.47
2022-10-27T15:08:09.438Z,2.20
2022-10-27T15:10:38.282Z,2.90
2022-10-27T15:13:07.932Z,2.40
2022-10-27T15:15:42.527Z,2.47
2022-10-27T15:18:22.922Z,2.30
2022-10-27T15:20:51.427Z,2.38
2022-10-27T15:23:19.272Z,2.10
2022-10-27T15:25:48.757Z,2.50
2022-10-27T15:28:18.761Z,2.80
2022-10-27T15:30:45.626Z,2.50
2022-10-27T15:33:27.640Z,2.70
2022-10-27T15:36:11.111Z,2.47
2022-10-27T15:38:38.739Z,2.33
2022-10-27T15:41:17.317Z,2.85
2022-10-27T15:44:04.151Z,2.60
2022-10-27T15:46:35.818Z,2.95
2022-10-27T15:49:02.794Z,2.78
2022-10-27T15:51:44.938Z,3.25
2022-10-27T15:54:39.532Z,3.42
2022-10-27T15:57:32.917Z,2.95
2022-10-27T16:00:22.536Z,3.60
2022-10-27T16:02:54.213Z,4.68
2022-10-27T16:05:30.428Z,4.90
2022-10-27T16:08:20.957Z,5.20
2022-10-27T16:10:49.064Z,4.70
2022-10-27T16:13:19.337Z,5.20
2022-10-27T16:15:49.746Z,5.15
2022-10-27T16:18:22.023Z,5.43
2022-10-27T16:20:48.809Z,5.57
2022-10-27T16:23:16.143Z,6.35
2022-10-27T16:25:44.984Z,7.00
2022-10-27T16:28:38.254Z,6.18
2022-10-27T16:31:05.002Z,5.40
2022-10-27T16:33:32.364Z,5.10
2022-10-27T16:35:59.122Z,3.90
2022-10-27T16:38:25.862Z,3.72
2022-10-27T16:40:56.294Z,4.18
2022-10-27T16:43:27.610Z,3.60
2022-10-27T16:45:54.315Z,3.42
2022-10-27T16:48:21.259Z,3.88
2022-10-27T16:50:48.067Z,3.75
2022-10-27T16:53:20.097Z,3.95
2022-10-27T16:56:01.386Z,3.85
2022-10-27T16:58:28.554Z,4.63
2022-10-27T17:00:55.354Z,4.90
2022-10-27T17:03:22.708Z,5.22
2022-10-27T17:05:49.398Z,4.90
2022-10-27T17:08:16.241Z,5.05
2022-10-27T17:10:43.725Z,5.97
2022-10-27T17:13:10.462Z,5.50
2022-10-27T17:15:37.401Z,5.93
2022-10-27T17:18:04.415Z,6.15
2022-10-27T17:20:31.223Z,6.93
2022-10-27T17:23:05.101Z,8.00
2022-10-27T17:25:33.047Z,8.75
2022-10-27T17:27:59.730Z,10.75
2022-10-27T17:30:27.598Z,11.90
2022-10-27T17:32:54.353Z,14.20
2022-10-27T17:35:21.231Z,14.00
2022-10-27T17:37:48.791Z,16.27
2022-10-27T17:40:18.174Z,15.77
2022-10-27T17:42:44.963Z,15.73
2022-10-27T17:45:11.723Z,14.65
2022-10-27T17:47:38.549Z,15.02
2022-10-27T17:50:08.980Z,15.75
2022-10-27T17:52:37.111Z,15.55
2022-10-27T17:55:05.224Z,15.52
2022-10-27T17:57:32.474Z,14.98
2022-10-27T18:00:00.428Z,15.85
2022-10-27T18:02:27.824Z,14.63
2022-10-27T18:04:55.432Z,16.98
2022-10-27T18:07:22.817Z,16.95
2022-10-27T18:09:49.892Z,16.85
2022-10-27T18:12:16.602Z,16.10
2022-10-27T18:14:43.481Z,15.77
2022-10-27T18:17:11.943Z,13.85
2022-10-27T18:19:39.943Z,12.85
2022-10-27T18:22:09.984Z,10.13
2022-10-27T18:24:37.439Z,8.95
2022-10-27T18:27:04.194Z,8.30
2022-10-27T18:29:32.403Z,8.55
2022-10-27T18:31:59.155Z,7.55
2022-10-27T18:34:25.960Z,8.68
2022-10-27T18:36:52.623Z,8.65
2022-10-27T18:39:19.768Z,9.68
2022-10-27T18:41:49.199Z,9.43
2022-10-27T18:44:16.147Z,10.27
2022-10-27T18:46:42.851Z,9.45
2022-10-27T18:49:16.262Z,8.27
2022-10-27T18:51:51.906Z,8.85
2022-10-27T18:54:18.684Z,8.95
2022-10-27T18:56:45.380Z,9.68
2022-10-27T18:59:13.286Z,9.18
2022-10-27T19:01:42.939Z,10.15
2022-10-27T19:04:10.109Z,11.10
2022-10-27T19:06:38.086Z,10.10
2022-10-27T19:09:05.715Z,9.93
2022-10-27T19:11:35.109Z,9.32
2022-10-27T19:14:03.008Z,9.43
2022-10-27T19:16:32.598Z,8.82
2022-10-27T19:19:00.099Z,9.90
2022-10-27T19:21:28.111Z,10.00
2022-10-27T19:23:57.330Z,8.48
2022-10-27T19:26:26.884Z,9.00
2022-10-27T19:28:55.618Z,8.90
2022-10-27T19:31:25.349Z,8.55
2022-10-27T19:33:52.458Z,8.70
2022-10-27T19:36:29.071Z,9.27
2022-10-27T19:38:57.794Z,10.18
2022-10-27T19:41:28.287Z,12.40
2022-10-27T19:43:58.603Z,11.00
2022-10-27T19:46:27.458Z,10.05
2022-10-27T19:48:56.201Z,9.43
2022-10-27T19:51:26.098Z,9.45
2022-10-27T19:53:56.490Z,8.65
2022-10-27T19:56:25.667Z,8.63
2022-10-27T19:58:58.030Z,10.07
2022-10-27T20:01:29.619Z,8.82
2022-10-27T20:03:59.672Z,9.35
2022-10-27T20:06:26.309Z,8.70
2022-10-27T20:08:56.213Z,9.07
2022-10-27T20:11:25.988Z,8.48
2022-10-27T20:13:55.287Z,8.88
2022-10-27T20:16:27.812Z,8.63
2022-10-27T20:18:55.073Z,8.60
2022-10-27T20:21:21.873Z,8.32
2022-10-27T20:23:48.614Z,8.82
2022-10-27T20:26:31.329Z,7.88
2022-10-27T20:28:58.946Z,9.10
2022-10-27T20:31:26.010Z,9.18
2022-10-27T20:33:52.771Z,9.10
2022-10-27T20:36:19.665Z,10.57
2022-10-27T20:38:46.847Z,9.45
2022-10-27T20:41:18.752Z,9.73
2022-10-27T20:43:45.883Z,9.45
2022-10-27T20:46:13.198Z,8.80
2022-10-27T20:48:40.788Z,9.15
2022-10-27T20:51:11.800Z,8.80
2022-10-27T20:53:39.672Z,8.73
2022-10-27T20:56:07.856Z,10.00
2022-10-27T20:58:34.518Z,8.88
2022-10-27T21:01:24.174Z,8.23
2022-10-27T21:03:53.062Z,8.43
2022-10-27T21:06:20.155Z,9.30
2022-10-27T21:08:47.012Z,8.90
2022-10-27T21:11:13.753Z,9.25
2022-10-27T21:13:40.287Z,8.82
2022-10-27T21:16:07.160Z,10.65
2022-10-27T21:18:33.808Z,9.43
2022-10-27T21:21:10.284Z,8.75
2022-10-27T21:23:41.247Z,8.45
2022-10-27T21:26:09.949Z,9.45
2022-10-27T21:28:37.395Z,8.77
2022-10-27T21:31:05.732Z,8.40
2022-10-27T21:33:32.924Z,8.70
2022-10-27T21:35:59.897Z,7.70
2022-10-27T21:38:26.534Z,8.48
2022-10-27T21:40:58.212Z,9.70
2022-10-27T21:43:25.068Z,8.90
2022-10-27T21:45:56.991Z,9.18
2022-10-27T21:48:25.534Z,10.32
2022-10-27T21:50:52.687Z,9.10
2022-10-27T21:53:19.894Z,8.65
2022-10-27T21:56:03.382Z,8.88
2022-10-27T21:58:31.645Z,8.18
2022-10-27T22:01:20.449Z,8.23
2022-10-27T22:03:48.510Z,8.88
2022-10-27T22:06:16.989Z,10.15
2022-10-27T22:08:44.325Z,9.27
2022-10-27T22:11:14.889Z,8.68
2022-10-27T22:13:41.811Z,7.80
2022-10-27T22:16:13.923Z,7.82
2022-10-27T22:18:41.991Z,8.30
2022-10-27T22:21:10.957Z,8.70
2022-10-27T22:23:37.839Z,8.20
2022-10-27T22:26:08.758Z,8.40
2022-10-27T22:28:36.648Z,8.85
2022-10-27T22:31:08.372Z,8.90
2022-10-27T22:33:35.314Z,8.60
2022-10-27T22:36:07.010Z,8.80
2022-10-27T22:38:34.588Z,9.25
2022-10-27T22:41:05.981Z,8.07
2022-10-27T22:43:34.471Z,9.07
2022-10-27T22:46:01.849Z,9.38
2022-10-27T22:48:31.443Z,9.55
2022-10-27T22:50:59.773Z,8.63
2022-10-27T22:53:29.728Z,8.50
2022-10-27T22:55:56.459Z,9.10
2022-10-27T22:58:23.508Z,10.02
2022-10-27T23:00:50.166Z,10.52
2022-10-27T23:03:16.833Z,10.77
2022-10-27T23:05:44.454Z,10.48
2022-10-27T23:08:11.152Z,11.48
2022-10-27T23:10:37.811Z,10.85
2022-10-27T23:13:04.456Z,10.77
2022-10-27T23:15:31.349Z,10.43
2022-10-27T23:17:58.079Z,10.15
2022-10-27T23:20:24.681Z,10.43
2022-10-27T23:22:51.617Z,10.00
2022-10-27T23:25:19.128Z,11.25
2022-10-27T23:27:45.779Z,10.02
2022-10-27T23:30:12.704Z,10.77
2022-10-27T23:32:39.284Z,8.27
2022-10-27T23:35:06.562Z,9.00
2022-10-27T23:37:33.107Z,9.00
2022-10-27T23:39:59.744Z,8.95
2022-10-27T23:42:26.305Z,9.35
2022-10-27T23:44:52.937Z,8.05
2022-10-27T23:47:19.520Z,7.93
2022-10-27T23:49:46.268Z,9.70
2022-10-27T23:52:12.899Z,7.95
2022-10-27T23:54:43.067Z,9.25
2022-10-27T23:57:12.042Z,10.93
2022-10-27T23:59:38.748Z,10.80
